Terminal Aerodrome Forecast
Issued by NWS

Home | Current Version | Previous Version | Text Only | Print | Product List | Glossary On
Versions: 1 2 3 4 5 6 7 8 9 10 11 12 13 14 15 16
000
FTUS41 KBGM 271700
TAFRME
TAF
KRME 271739Z 2718/2818 28008KT P6SM SCT025 BKN035
      TEMPO 2718/2720 BKN025 OVC035
     FM272300 29004KT P6SM SCT035 BKN100
     FM280900 VRB03KT P6SM OVC023
     FM281400 30008KT P6SM BKN040=

USA.gov is the U.S. government's official web portal to all federal, state and local government web resources and services.